Weather History for Huntingburg, IN

Change the Weather History Date:

Thursday, April 10, 2014

  Actual Average Record
Temperature  
Mean Temperature 60 °F -  
Max Temperature 77 °F 63 °F 84 °F (2011)
Min Temperature 44 °F 43 °F 28 °F (1997)
Degree Days  
Heating Degree Days 4    
Growing Degree Days 10 (Base 50)    
Moisture  
Dew Point 40 °F    
Average Humidity 49    
Maximum Humidity 71    
Minimum Humidity 31    
Precipitation  
Precipitation 0.00 in - - ()
Sea Level Pressure  
Sea Level Pressure 29.98 in    
Wind  
Wind Speed 12 mph (SSW)    
Max Wind Speed 28 mph    
Max Gust Speed 39 mph    
Visibility 10 miles    
Events      
Averages and records for this station are not official NWS values.
T = Trace of Precipitation, MM = Missing Value Source: NWS Daily Summary

Daily Weather History Graph

Daily Weather History Graph

Search for Another Location

Airport:

Trip Planner

Search our weather history database for the weather conditions in past years. The results will help you decide how hot, cold, wet, or windy it might be!

Date:

Astronomy

Apr. 10, 2014 Rise Set
Actual Time 7:19 AM EDT 8:19 PM EDT
Civil Twilight 6:52 AM EDT 8:46 PM EDT
Nautical Twilight 6:20 AM EDT 9:18 PM EDT
Astronomical Twilight 5:47 AM EDT 9:52 PM EDT
Moon 4:06 PM EDT (4/10) 4:38 AM EDT (4/10)
Length of Visible Light 13h 54m
Length of Day
13h 00m
Waxing Gibbous, 79% of the Moon is Illuminated
Apr 10
Waxing Gibbous
Apr 15
Full
Apr 22
Last Quarter
Apr 29
New
May 6
First Quarter

Hourly Weather History & Observations

Time (EDT) Temp. Windchill Dew Point Humidity Pressure Visibility Wind Dir Wind Speed Gust Speed Precip Events Conditions
12:15 AM 48.2 °F - 33.8 °F 58% 30.06 in 10.0 mi SSW 5.8 mph - N/A   Clear
12:35 AM 48.2 °F - 33.8 °F 58% 30.07 in 10.0 mi SSW 5.8 mph - N/A   Clear
12:55 AM 48.2 °F - 33.8 °F 58% 30.07 in 10.0 mi SSW 6.9 mph - N/A   Clear
1:15 AM 48.2 °F - 33.8 °F 58% 30.07 in 10.0 mi SSW 8.1 mph - N/A   Clear
1:35 AM 48.2 °F - 33.8 °F 58% 30.07 in 10.0 mi SSW 8.1 mph - N/A   Clear
1:55 AM 48.2 °F - 33.8 °F 58% 30.07 in 10.0 mi SSW 6.9 mph - N/A   Clear
2:15 AM 46.4 °F 42.9 °F 33.8 °F 62% 30.06 in 10.0 mi South 6.9 mph - N/A   Clear
2:35 AM 46.4 °F 43.5 °F 33.8 °F 62% 30.06 in 10.0 mi SSW 5.8 mph - N/A   Clear
2:55 AM 46.4 °F 43.5 °F 33.8 °F 62% 30.05 in 10.0 mi South 5.8 mph - N/A   Clear
3:15 AM 46.4 °F 42.9 °F 33.8 °F 62% 30.05 in 10.0 mi SSW 6.9 mph - N/A   Clear
3:35 AM 46.4 °F 43.5 °F 33.8 °F 62% 30.05 in 10.0 mi South 5.8 mph - N/A   Clear
3:55 AM 46.4 °F 42.9 °F 33.8 °F 62% 30.05 in 10.0 mi South 6.9 mph - N/A   Clear
4:15 AM 46.4 °F 42.9 °F 33.8 °F 62% 30.04 in 10.0 mi South 6.9 mph - N/A   Clear
4:35 AM 46.4 °F 41.9 °F 33.8 °F 62% 30.04 in 10.0 mi South 9.2 mph - N/A   Clear
4:55 AM 46.4 °F 42.4 °F 33.8 °F 62% 30.03 in 10.0 mi South 8.1 mph - N/A   Clear
5:15 AM 46.4 °F 42.9 °F 33.8 °F 62% 30.03 in 10.0 mi South 6.9 mph - N/A   Clear
5:35 AM 46.4 °F 42.9 °F 33.8 °F 62% 30.03 in 10.0 mi South 6.9 mph - N/A   Clear
5:55 AM 44.6 °F 40.2 °F 33.8 °F 66% 30.03 in 10.0 mi SSW 8.1 mph - N/A   Clear
6:15 AM 44.6 °F 40.2 °F 35.6 °F 71% 30.03 in 10.0 mi South 8.1 mph - N/A   Clear
6:35 AM 46.4 °F 41.9 °F 33.8 °F 62% 30.03 in 10.0 mi South 9.2 mph - N/A   Clear
6:55 AM 46.4 °F 42.4 °F 35.6 °F 66% 30.03 in 10.0 mi South 8.1 mph - N/A   Clear
7:15 AM 46.4 °F 42.9 °F 35.6 °F 66% 30.04 in 10.0 mi South 6.9 mph - N/A   Clear
7:35 AM 46.4 °F 41.1 °F 35.6 °F 66% 30.03 in 10.0 mi SSW 11.5 mph 17.3 mph N/A   Clear
7:55 AM 48.2 °F - 35.6 °F 62% 30.04 in 10.0 mi SSW 11.5 mph - N/A   Clear
8:15 AM 48.2 °F - 35.6 °F 62% 30.03 in 10.0 mi SSW 10.4 mph - N/A   Clear
8:35 AM 51.8 °F - 37.4 °F 58% 30.03 in 10.0 mi SSW 11.5 mph 17.3 mph N/A   Clear
8:55 AM 51.8 °F - 37.4 °F 58% 30.03 in 10.0 mi SSW 15.0 mph - N/A   Clear
9:15 AM 53.6 °F - 39.2 °F 58% 30.03 in 10.0 mi SSW 18.4 mph 24.2 mph N/A   Clear
9:35 AM 55.4 °F - 39.2 °F 54% 30.02 in 10.0 mi SSW 18.4 mph 28.8 mph N/A   Clear
9:55 AM 57.2 °F - 39.2 °F 51% 30.02 in 10.0 mi SSW 19.6 mph 26.5 mph N/A   Clear
10:15 AM 59.0 °F - 39.2 °F 48% 30.02 in 10.0 mi SW 21.9 mph 27.6 mph N/A   Clear
10:35 AM 60.8 °F - 39.2 °F 45% 30.01 in 10.0 mi SSW 18.4 mph 27.6 mph N/A   Clear
10:55 AM 60.8 °F - 41.0 °F 48% 30.01 in 10.0 mi SSW 20.7 mph 26.5 mph N/A   Clear
11:15 AM 62.6 °F - 42.8 °F 48% 30.00 in 10.0 mi SSW 19.6 mph 24.2 mph N/A   Clear
11:35 AM 62.6 °F - 42.8 °F 48% 30.00 in 10.0 mi SSW 18.4 mph 26.5 mph N/A   Clear
11:55 AM 64.4 °F - 42.8 °F 45% 29.99 in 10.0 mi SSW 19.6 mph 25.3 mph N/A   Clear
12:15 PM 66.2 °F - 42.8 °F 43% 29.98 in 10.0 mi SW 19.6 mph 28.8 mph N/A   Clear
12:35 PM 66.2 °F - 44.6 °F 46% 29.97 in 10.0 mi SW 25.3 mph 31.1 mph N/A   Clear
12:55 PM 68.0 °F - 44.6 °F 43% 29.95 in 10.0 mi SSW 19.6 mph 31.1 mph N/A   Clear
1:15 PM 69.8 °F - 46.4 °F 43% 29.95 in 10.0 mi SW 24.2 mph 32.2 mph N/A   Clear
1:35 PM 69.8 °F - 46.4 °F 43% 29.95 in 10.0 mi SW 18.4 mph 27.6 mph N/A   Clear
1:55 PM 71.6 °F - 46.4 °F 41% 29.94 in 10.0 mi SW 24.2 mph 33.4 mph N/A   Clear
2:15 PM 71.6 °F - 46.4 °F 41% 29.93 in 10.0 mi SW 26.5 mph 35.7 mph N/A   Clear
2:35 PM 73.4 °F - 46.4 °F 38% 29.92 in 10.0 mi SW 25.3 mph 34.5 mph N/A   Clear
2:55 PM 73.4 °F - 46.4 °F 38% 29.91 in 10.0 mi SW 23.0 mph 31.1 mph N/A   Clear
3:15 PM 75.2 °F - 46.4 °F 36% 29.90 in 10.0 mi SSW 25.3 mph 33.4 mph N/A   Clear
3:35 PM 75.2 °F - 46.4 °F 36% 29.89 in 10.0 mi SSW 26.5 mph 36.8 mph N/A   Clear
3:55 PM 75.2 °F - 46.4 °F 36% 29.89 in 10.0 mi SW 21.9 mph 38.0 mph N/A   Clear
4:15 PM 75.2 °F - 46.4 °F 36% 29.88 in 10.0 mi SW 23.0 mph 33.4 mph N/A   Clear
4:35 PM 75.2 °F - 46.4 °F 36% 29.87 in 10.0 mi SW 20.7 mph 32.2 mph N/A   Clear
4:55 PM 75.2 °F - 46.4 °F 36% 29.87 in 10.0 mi SW 17.3 mph 27.6 mph N/A   Clear
5:15 PM 75.2 °F - 44.6 °F 34% 29.87 in 10.0 mi SW 19.6 mph 31.1 mph N/A   Clear
5:35 PM 75.2 °F - 46.4 °F 36% 29.87 in 10.0 mi SSW 23.0 mph 29.9 mph N/A   Clear
5:55 PM 75.2 °F - 46.4 °F 36% 29.87 in 10.0 mi SW 21.9 mph 26.5 mph N/A   Clear
6:15 PM 77.0 °F - 44.6 °F 32% 29.87 in 10.0 mi SW 27.6 mph 39.1 mph N/A   Clear
6:35 PM 75.2 °F - 44.6 °F 34% 29.88 in 10.0 mi SW 16.1 mph 31.1 mph N/A   Clear
6:55 PM 75.2 °F - 44.6 °F 34% 29.89 in 10.0 mi WSW 20.7 mph 28.8 mph N/A   Clear
7:15 PM 75.2 °F - 42.8 °F 31% 29.89 in 10.0 mi SW 18.4 mph 24.2 mph N/A   Clear
7:35 PM 73.4 °F - 42.8 °F 33% 29.88 in 10.0 mi SW 17.3 mph 23.0 mph N/A   Clear
7:55 PM 73.4 °F - 42.8 °F 33% 29.89 in 10.0 mi SW 16.1 mph 23.0 mph N/A   Clear
8:15 PM 71.6 °F - 42.8 °F 35% 29.89 in 10.0 mi SW 13.8 mph - N/A   Clear
8:35 PM 71.6 °F - 42.8 °F 35% 29.90 in 10.0 mi SW 11.5 mph 20.7 mph N/A   Clear
8:55 PM 69.8 °F - 42.8 °F 38% 29.91 in 10.0 mi SW 11.5 mph 17.3 mph N/A   Clear
9:15 PM 69.8 °F - 42.8 °F 38% 29.92 in 10.0 mi SSW 10.4 mph - N/A   Clear
9:35 PM 69.8 °F - 42.8 °F 38% 29.92 in 10.0 mi SSW 11.5 mph 17.3 mph N/A   Clear
9:55 PM 68.0 °F - 42.8 °F 40% 29.92 in 10.0 mi SSW 10.4 mph - N/A   Clear
10:15 PM 64.4 °F - 44.6 °F 49% 29.94 in 10.0 mi SSW 10.4 mph - N/A   Clear
10:35 PM 64.4 °F - 44.6 °F 49% 29.95 in 10.0 mi SW 5.8 mph - N/A   Clear
10:55 PM 64.4 °F - 44.6 °F 49% 29.95 in 10.0 mi SW 9.2 mph - N/A   Clear
11:15 PM 64.4 °F - 44.6 °F 49% 29.96 in 10.0 mi SW 10.4 mph - N/A   Clear
11:35 PM 64.4 °F - 44.6 °F 49% 29.96 in 10.0 mi SW 8.1 mph - N/A   Clear
11:55 PM 64.4 °F - 44.6 °F 49% 29.97 in 10.0 mi SSW 6.9 mph - N/A   Clear